sensor_id;sensor_type;location;lat;lon;timestamp;temperature;humidity
26336;DHT22;14047;50.936;4.654;2023-06-26T00:00:22;23.90;99.90
26336;DHT22;14047;50.936;4.654;2023-06-26T00:02:49;23.90;99.90
26336;DHT22;14047;50.936;4.654;2023-06-26T00:05:15;23.90;99.90
26336;DHT22;14047;50.936;4.654;2023-06-26T00:07:41;23.90;99.90
26336;DHT22;14047;50.936;4.654;2023-06-26T00:10:08;23.80;99.90
26336;DHT22;14047;50.936;4.654;2023-06-26T00:12:34;23.80;99.90
26336;DHT22;14047;50.936;4.654;2023-06-26T00:15:02;23.60;99.90
26336;DHT22;14047;50.936;4.654;2023-06-26T00:17:29;23.50;99.90
26336;DHT22;14047;50.936;4.654;2023-06-26T00:19:55;23.50;99.90
26336;DHT22;14047;50.936;4.654;2023-06-26T00:22:21;23.40;99.90
26336;DHT22;14047;50.936;4.654;2023-06-26T00:24:47;23.40;99.90
26336;DHT22;14047;50.936;4.654;2023-06-26T00:27:14;23.20;99.90
26336;DHT22;14047;50.936;4.654;2023-06-26T00:29:40;23.10;99.90
26336;DHT22;14047;50.936;4.654;2023-06-26T00:32:06;23.00;99.90
26336;DHT22;14047;50.936;4.654;2023-06-26T00:34:34;22.90;99.90
26336;DHT22;14047;50.936;4.654;2023-06-26T00:37:01;22.90;99.90
26336;DHT22;14047;50.936;4.654;2023-06-26T00:39:27;22.80;99.90
26336;DHT22;14047;50.936;4.654;2023-06-26T00:41:53;22.80;99.90
26336;DHT22;14047;50.936;4.654;2023-06-26T00:44:21;22.70;99.90
26336;DHT22;14047;50.936;4.654;2023-06-26T00:46:47;22.70;99.90
26336;DHT22;14047;50.936;4.654;2023-06-26T00:49:14;22.70;99.90
26336;DHT22;14047;50.936;4.654;2023-06-26T00:51:41;22.50;99.90
26336;DHT22;14047;50.936;4.654;2023-06-26T00:54:08;22.50;99.90
26336;DHT22;14047;50.936;4.654;2023-06-26T00:56:34;22.40;99.90
26336;DHT22;14047;50.936;4.654;2023-06-26T00:59:00;22.30;99.90
26336;DHT22;14047;50.936;4.654;2023-06-26T01:01:27;22.20;99.90
26336;DHT22;14047;50.936;4.654;2023-06-26T01:03:53;22.20;99.90
26336;DHT22;14047;50.936;4.654;2023-06-26T01:06:21;22.10;99.90
26336;DHT22;14047;50.936;4.654;2023-06-26T01:08:48;22.00;99.90
26336;DHT22;14047;50.936;4.654;2023-06-26T01:11:16;21.90;99.90
26336;DHT22;14047;50.936;4.654;2023-06-26T01:13:43;21.80;99.90
26336;DHT22;14047;50.936;4.654;2023-06-26T01:16:12;21.80;99.90
26336;DHT22;14047;50.936;4.654;2023-06-26T01:18:40;21.70;99.90
26336;DHT22;14047;50.936;4.654;2023-06-26T01:21:09;21.60;99.90
26336;DHT22;14047;50.936;4.654;2023-06-26T01:26:21;21.40;99.90
26336;DHT22;14047;50.936;4.654;2023-06-26T01:28:50;21.30;99.90
26336;DHT22;14047;50.936;4.654;2023-06-26T01:31:17;21.40;99.90
26336;DHT22;14047;50.936;4.654;2023-06-26T01:33:43;21.40;99.90
26336;DHT22;14047;50.936;4.654;2023-06-26T01:36:10;21.40;99.90
26336;DHT22;14047;50.936;4.654;2023-06-26T01:38:36;21.50;99.90
26336;DHT22;14047;50.936;4.654;2023-06-26T01:41:04;21.50;99.90
26336;DHT22;14047;50.936;4.654;2023-06-26T01:43:54;21.60;99.90
26336;DHT22;14047;50.936;4.654;2023-06-26T01:49:11;21.60;99.90
26336;DHT22;14047;50.936;4.654;2023-06-26T01:51:45;21.40;99.90
26336;DHT22;14047;50.936;4.654;2023-06-26T01:54:17;21.40;99.90
26336;DHT22;14047;50.936;4.654;2023-06-26T01:56:45;21.30;99.90
26336;DHT22;14047;50.936;4.654;2023-06-26T01:59:14;21.20;99.90
26336;DHT22;14047;50.936;4.654;2023-06-26T02:01:41;21.10;99.90
26336;DHT22;14047;50.936;4.654;2023-06-26T02:04:07;21.10;99.90
26336;DHT22;14047;50.936;4.654;2023-06-26T02:06:33;21.20;99.90
26336;DHT22;14047;50.936;4.654;2023-06-26T02:08:59;21.20;99.90
26336;DHT22;14047;50.936;4.654;2023-06-26T02:11:26;21.20;99.90
26336;DHT22;14047;50.936;4.654;2023-06-26T02:13:52;21.30;99.90
26336;DHT22;14047;50.936;4.654;2023-06-26T02:16:18;21.20;99.90
26336;DHT22;14047;50.936;4.654;2023-06-26T02:18:45;21.10;99.90
26336;DHT22;14047;50.936;4.654;2023-06-26T02:21:12;21.20;99.90
26336;DHT22;14047;50.936;4.654;2023-06-26T02:23:38;21.20;99.90
26336;DHT22;14047;50.936;4.654;2023-06-26T02:26:04;21.30;99.90
26336;DHT22;14047;50.936;4.654;2023-06-26T02:28:30;21.20;99.90
26336;DHT22;14047;50.936;4.654;2023-06-26T02:30:57;21.10;99.90
26336;DHT22;14047;50.936;4.654;2023-06-26T02:33:24;21.00;99.90
26336;DHT22;14047;50.936;4.654;2023-06-26T02:35:50;20.90;99.90
26336;DHT22;14047;50.936;4.654;2023-06-26T02:38:16;20.80;99.90
26336;DHT22;14047;50.936;4.654;2023-06-26T02:40:42;20.80;99.90
26336;DHT22;14047;50.936;4.654;2023-06-26T02:43:09;20.70;99.90
26336;DHT22;14047;50.936;4.654;2023-06-26T02:45:35;20.60;99.90
26336;DHT22;14047;50.936;4.654;2023-06-26T02:48:01;20.50;99.90
26336;DHT22;14047;50.936;4.654;2023-06-26T02:50:27;20.50;99.90
26336;DHT22;14047;50.936;4.654;2023-06-26T02:53:08;20.50;99.90
26336;DHT22;14047;50.936;4.654;2023-06-26T02:55:37;20.60;99.90
26336;DHT22;14047;50.936;4.654;2023-06-26T02:58:03;20.50;99.90
26336;DHT22;14047;50.936;4.654;2023-06-26T03:00:29;20.50;99.90
26336;DHT22;14047;50.936;4.654;2023-06-26T03:02:57;20.40;99.90
26336;DHT22;14047;50.936;4.654;2023-06-26T03:05:23;20.40;99.90
26336;DHT22;14047;50.936;4.654;2023-06-26T03:07:50;20.40;99.90
26336;DHT22;14047;50.936;4.654;2023-06-26T03:10:16;20.40;99.90
26336;DHT22;14047;50.936;4.654;2023-06-26T03:12:43;20.40;99.90
26336;DHT22;14047;50.936;4.654;2023-06-26T03:15:10;20.30;99.90
26336;DHT22;14047;50.936;4.654;2023-06-26T03:17:37;20.40;99.90
26336;DHT22;14047;50.936;4.654;2023-06-26T03:20:07;20.30;99.90
26336;DHT22;14047;50.936;4.654;2023-06-26T03:22:48;20.30;99.90
26336;DHT22;14047;50.936;4.654;2023-06-26T03:25:16;20.20;99.90
26336;DHT22;14047;50.936;4.654;2023-06-26T03:27:42;20.10;99.90
26336;DHT22;14047;50.936;4.654;2023-06-26T03:30:08;20.00;99.90
26336;DHT22;14047;50.936;4.654;2023-06-26T03:32:37;20.00;99.90
26336;DHT22;14047;50.936;4.654;2023-06-26T03:35:03;19.90;99.90
26336;DHT22;14047;50.936;4.654;2023-06-26T03:37:29;19.90;99.90
26336;DHT22;14047;50.936;4.654;2023-06-26T03:39:55;19.80;99.90
26336;DHT22;14047;50.936;4.654;2023-06-26T03:42:22;19.70;99.90
26336;DHT22;14047;50.936;4.654;2023-06-26T03:44:48;19.60;99.90
26336;DHT22;14047;50.936;4.654;2023-06-26T03:47:16;19.60;99.90
26336;DHT22;14047;50.936;4.654;2023-06-26T03:49:42;19.50;99.90
26336;DHT22;14047;50.936;4.654;2023-06-26T03:52:09;19.60;99.90
26336;DHT22;14047;50.936;4.654;2023-06-26T03:54:35;19.60;99.90
26336;DHT22;14047;50.936;4.654;2023-06-26T03:57:01;19.60;99.90
26336;DHT22;14047;50.936;4.654;2023-06-26T03:59:27;19.60;99.90
26336;DHT22;14047;50.936;4.654;2023-06-26T04:01:53;19.50;99.90
26336;DHT22;14047;50.936;4.654;2023-06-26T04:04:19;19.50;99.90
26336;DHT22;14047;50.936;4.654;2023-06-26T04:06:45;19.50;99.90
26336;DHT22;14047;50.936;4.654;2023-06-26T04:09:12;19.50;99.90
26336;DHT22;14047;50.936;4.654;2023-06-26T04:11:38;19.30;99.90
26336;DHT22;14047;50.936;4.654;2023-06-26T04:14:04;19.30;99.90
26336;DHT22;14047;50.936;4.654;2023-06-26T04:16:30;19.30;99.90
26336;DHT22;14047;50.936;4.654;2023-06-26T04:18:56;19.40;99.90
26336;DHT22;14047;50.936;4.654;2023-06-26T04:21:23;19.50;99.90
26336;DHT22;14047;50.936;4.654;2023-06-26T04:23:52;19.60;99.90
26336;DHT22;14047;50.936;4.654;2023-06-26T04:26:18;19.70;99.90
26336;DHT22;14047;50.936;4.654;2023-06-26T04:28:44;19.80;99.90
26336;DHT22;14047;50.936;4.654;2023-06-26T04:31:10;19.80;99.90
26336;DHT22;14047;50.936;4.654;2023-06-26T04:33:37;19.80;99.90
26336;DHT22;14047;50.936;4.654;2023-06-26T04:36:04;20.00;99.90
26336;DHT22;14047;50.936;4.654;2023-06-26T04:38:34;20.10;99.90
26336;DHT22;14047;50.936;4.654;2023-06-26T04:41:00;20.10;99.90
26336;DHT22;14047;50.936;4.654;2023-06-26T04:43:26;20.00;99.90
26336;DHT22;14047;50.936;4.654;2023-06-26T04:45:52;19.80;99.90
26336;DHT22;14047;50.936;4.654;2023-06-26T04:48:18;19.50;99.90
26336;DHT22;14047;50.936;4.654;2023-06-26T04:50:44;19.60;99.90
26336;DHT22;14047;50.936;4.654;2023-06-26T04:53:23;19.50;99.90
26336;DHT22;14047;50.936;4.654;2023-06-26T04:55:50;19.40;99.90
26336;DHT22;14047;50.936;4.654;2023-06-26T04:58:17;19.30;99.90
26336;DHT22;14047;50.936;4.654;2023-06-26T05:00:43;19.30;99.90
26336;DHT22;14047;50.936;4.654;2023-06-26T05:03:11;19.40;99.90
26336;DHT22;14047;50.936;4.654;2023-06-26T05:05:37;19.30;99.90
26336;DHT22;14047;50.936;4.654;2023-06-26T05:08:21;19.30;99.90
26336;DHT22;14047;50.936;4.654;2023-06-26T05:10:48;19.20;99.90
26336;DHT22;14047;50.936;4.654;2023-06-26T05:13:14;19.30;99.90
26336;DHT22;14047;50.936;4.654;2023-06-26T05:15:46;19.20;99.90
26336;DHT22;14047;50.936;4.654;2023-06-26T05:18:12;19.20;99.90
26336;DHT22;14047;50.936;4.654;2023-06-26T05:20:39;19.10;99.90
26336;DHT22;14047;50.936;4.654;2023-06-26T05:23:05;19.10;99.90
26336;DHT22;14047;50.936;4.654;2023-06-26T05:25:32;19.00;99.90
26336;DHT22;14047;50.936;4.654;2023-06-26T05:28:00;19.00;99.90
26336;DHT22;14047;50.936;4.654;2023-06-26T05:30:27;19.10;99.90
26336;DHT22;14047;50.936;4.654;2023-06-26T05:32:59;19.10;99.90
26336;DHT22;14047;50.936;4.654;2023-06-26T05:35:28;19.30;99.90
26336;DHT22;14047;50.936;4.654;2023-06-26T05:37:56;19.30;99.90
26336;DHT22;14047;50.936;4.654;2023-06-26T05:40:23;19.40;99.90
26336;DHT22;14047;50.936;4.654;2023-06-26T05:42:49;19.60;99.90
26336;DHT22;14047;50.936;4.654;2023-06-26T05:45:15;19.60;99.90
26336;DHT22;14047;50.936;4.654;2023-06-26T05:47:42;19.70;99.90
26336;DHT22;14047;50.936;4.654;2023-06-26T05:50:09;19.70;99.90
26336;DHT22;14047;50.936;4.654;2023-06-26T05:52:36;19.70;99.90
26336;DHT22;14047;50.936;4.654;2023-06-26T05:55:02;19.50;99.90
26336;DHT22;14047;50.936;4.654;2023-06-26T05:57:30;19.30;99.90
26336;DHT22;14047;50.936;4.654;2023-06-26T05:59:56;19.30;99.90
26336;DHT22;14047;50.936;4.654;2023-06-26T06:02:22;19.30;99.90
26336;DHT22;14047;50.936;4.654;2023-06-26T06:04:49;19.30;99.90
26336;DHT22;14047;50.936;4.654;2023-06-26T06:07:15;19.30;99.90
26336;DHT22;14047;50.936;4.654;2023-06-26T06:09:41;19.40;99.90
26336;DHT22;14047;50.936;4.654;2023-06-26T06:12:07;19.50;99.90
26336;DHT22;14047;50.936;4.654;2023-06-26T06:14:34;19.50;99.90
26336;DHT22;14047;50.936;4.654;2023-06-26T06:17:01;19.40;99.90
26336;DHT22;14047;50.936;4.654;2023-06-26T06:19:27;19.50;99.90
26336;DHT22;14047;50.936;4.654;2023-06-26T06:21:53;19.70;99.90
26336;DHT22;14047;50.936;4.654;2023-06-26T06:24:20;19.80;99.90
26336;DHT22;14047;50.936;4.654;2023-06-26T06:26:46;19.70;99.90
26336;DHT22;14047;50.936;4.654;2023-06-26T06:29:12;19.70;99.90
26336;DHT22;14047;50.936;4.654;2023-06-26T06:31:38;19.60;99.90
26336;DHT22;14047;50.936;4.654;2023-06-26T06:34:04;19.60;99.90
26336;DHT22;14047;50.936;4.654;2023-06-26T06:36:29;19.60;99.90
26336;DHT22;14047;50.936;4.654;2023-06-26T06:38:56;19.60;99.90
26336;DHT22;14047;50.936;4.654;2023-06-26T06:41:22;19.70;99.90
26336;DHT22;14047;50.936;4.654;2023-06-26T06:43:48;19.70;99.90
26336;DHT22;14047;50.936;4.654;2023-06-26T06:46:14;19.80;99.90
26336;DHT22;14047;50.936;4.654;2023-06-26T06:48:40;19.90;99.90
26336;DHT22;14047;50.936;4.654;2023-06-26T06:51:06;20.00;99.90
26336;DHT22;14047;50.936;4.654;2023-06-26T06:53:32;20.00;99.90
26336;DHT22;14047;50.936;4.654;2023-06-26T06:55:58;20.20;99.90
26336;DHT22;14047;50.936;4.654;2023-06-26T06:58:27;20.30;99.90
26336;DHT22;14047;50.936;4.654;2023-06-26T07:00:53;20.40;99.90
26336;DHT22;14047;50.936;4.654;2023-06-26T07:03:19;20.20;99.90
26336;DHT22;14047;50.936;4.654;2023-06-26T07:05:47;20.00;99.90
26336;DHT22;14047;50.936;4.654;2023-06-26T07:08:13;20.10;99.90
26336;DHT22;14047;50.936;4.654;2023-06-26T07:10:39;20.20;99.90
26336;DHT22;14047;50.936;4.654;2023-06-26T07:13:05;20.10;99.90
26336;DHT22;14047;50.936;4.654;2023-06-26T07:15:31;20.20;99.90
26336;DHT22;14047;50.936;4.654;2023-06-26T07:17:57;20.40;99.90
26336;DHT22;14047;50.936;4.654;2023-06-26T07:20:23;20.40;99.90
26336;DHT22;14047;50.936;4.654;2023-06-26T07:22:50;20.50;99.90
26336;DHT22;14047;50.936;4.654;2023-06-26T07:25:16;20.50;99.90
26336;DHT22;14047;50.936;4.654;2023-06-26T07:27:42;20.70;99.90
26336;DHT22;14047;50.936;4.654;2023-06-26T07:30:08;20.70;99.90
26336;DHT22;14047;50.936;4.654;2023-06-26T07:32:35;20.60;99.90
26336;DHT22;14047;50.936;4.654;2023-06-26T07:35:01;20.70;99.90
26336;DHT22;14047;50.936;4.654;2023-06-26T07:37:27;20.80;99.90
26336;DHT22;14047;50.936;4.654;2023-06-26T07:39:53;20.90;99.90
26336;DHT22;14047;50.936;4.654;2023-06-26T07:42:19;21.00;99.90
26336;DHT22;14047;50.936;4.654;2023-06-26T07:44:45;21.00;99.90
26336;DHT22;14047;50.936;4.654;2023-06-26T07:47:11;21.10;99.90
26336;DHT22;14047;50.936;4.654;2023-06-26T07:49:37;21.10;99.90
26336;DHT22;14047;50.936;4.654;2023-06-26T07:52:05;21.20;99.90
26336;DHT22;14047;50.936;4.654;2023-06-26T07:54:31;21.30;99.90
26336;DHT22;14047;50.936;4.654;2023-06-26T07:56:59;21.40;99.90
26336;DHT22;14047;50.936;4.654;2023-06-26T07:59:28;21.50;99.90
26336;DHT22;14047;50.936;4.654;2023-06-26T08:01:55;21.60;99.90
26336;DHT22;14047;50.936;4.654;2023-06-26T08:04:23;21.70;99.90
26336;DHT22;14047;50.936;4.654;2023-06-26T08:06:51;21.70;99.90
26336;DHT22;14047;50.936;4.654;2023-06-26T08:09:19;21.70;99.90
26336;DHT22;14047;50.936;4.654;2023-06-26T08:11:45;21.60;99.90
26336;DHT22;14047;50.936;4.654;2023-06-26T08:14:11;21.70;99.90
26336;DHT22;14047;50.936;4.654;2023-06-26T08:16:40;21.60;99.90
26336;DHT22;14047;50.936;4.654;2023-06-26T08:19:07;21.60;99.90
26336;DHT22;14047;50.936;4.654;2023-06-26T08:21:33;21.60;99.90
26336;DHT22;14047;50.936;4.654;2023-06-26T08:23:59;21.60;99.90
26336;DHT22;14047;50.936;4.654;2023-06-26T08:26:25;21.70;99.90
26336;DHT22;14047;50.936;4.654;2023-06-26T08:28:51;21.90;99.90
26336;DHT22;14047;50.936;4.654;2023-06-26T08:31:17;21.80;99.90
26336;DHT22;14047;50.936;4.654;2023-06-26T08:33:43;21.70;99.90
26336;DHT22;14047;50.936;4.654;2023-06-26T08:36:09;21.80;99.90
26336;DHT22;14047;50.936;4.654;2023-06-26T08:38:35;22.00;99.90
26336;DHT22;14047;50.936;4.654;2023-06-26T08:41:01;22.10;99.90
26336;DHT22;14047;50.936;4.654;2023-06-26T08:43:27;22.40;99.90
26336;DHT22;14047;50.936;4.654;2023-06-26T08:45:54;22.60;99.90
26336;DHT22;14047;50.936;4.654;2023-06-26T08:48:21;22.70;99.90
26336;DHT22;14047;50.936;4.654;2023-06-26T08:50:48;22.60;99.90
26336;DHT22;14047;50.936;4.654;2023-06-26T08:53:29;22.70;99.90
26336;DHT22;14047;50.936;4.654;2023-06-26T08:55:59;22.50;99.90
26336;DHT22;14047;50.936;4.654;2023-06-26T08:58:26;22.40;99.90
26336;DHT22;14047;50.936;4.654;2023-06-26T09:00:52;22.40;99.90
26336;DHT22;14047;50.936;4.654;2023-06-26T09:03:19;22.50;99.90
26336;DHT22;14047;50.936;4.654;2023-06-26T09:05:45;22.60;99.90
26336;DHT22;14047;50.936;4.654;2023-06-26T09:08:11;22.50;99.90
26336;DHT22;14047;50.936;4.654;2023-06-26T09:10:39;22.70;99.90
26336;DHT22;14047;50.936;4.654;2023-06-26T09:13:05;22.90;99.90
26336;DHT22;14047;50.936;4.654;2023-06-26T09:15:44;23.10;99.90
26336;DHT22;14047;50.936;4.654;2023-06-26T09:18:10;22.90;99.90
26336;DHT22;14047;50.936;4.654;2023-06-26T09:20:36;22.80;99.90
26336;DHT22;14047;50.936;4.654;2023-06-26T09:23:03;22.90;99.90
26336;DHT22;14047;50.936;4.654;2023-06-26T09:25:29;22.90;99.90
26336;DHT22;14047;50.936;4.654;2023-06-26T09:27:56;23.10;99.90
26336;DHT22;14047;50.936;4.654;2023-06-26T09:30:22;23.20;99.90
26336;DHT22;14047;50.936;4.654;2023-06-26T09:32:48;23.30;99.90
26336;DHT22;14047;50.936;4.654;2023-06-26T09:35:16;23.40;99.90
26336;DHT22;14047;50.936;4.654;2023-06-26T09:37:43;23.40;99.90
26336;DHT22;14047;50.936;4.654;2023-06-26T09:40:10;23.60;99.90
26336;DHT22;14047;50.936;4.654;2023-06-26T09:42:37;23.50;99.90
26336;DHT22;14047;50.936;4.654;2023-06-26T09:45:03;23.30;99.90
26336;DHT22;14047;50.936;4.654;2023-06-26T09:47:34;23.30;99.90
26336;DHT22;14047;50.936;4.654;2023-06-26T09:50:03;23.40;99.90
26336;DHT22;14047;50.936;4.654;2023-06-26T09:52:29;23.50;99.90
26336;DHT22;14047;50.936;4.654;2023-06-26T09:55:09;23.50;99.90
26336;DHT22;14047;50.936;4.654;2023-06-26T09:57:35;23.50;99.90
26336;DHT22;14047;50.936;4.654;2023-06-26T10:00:03;23.60;99.90
26336;DHT22;14047;50.936;4.654;2023-06-26T10:02:38;23.60;99.90
26336;DHT22;14047;50.936;4.654;2023-06-26T10:05:04;23.80;99.90
26336;DHT22;14047;50.936;4.654;2023-06-26T10:07:31;23.90;99.90
26336;DHT22;14047;50.936;4.654;2023-06-26T10:09:57;23.90;99.90
26336;DHT22;14047;50.936;4.654;2023-06-26T10:12:30;23.90;99.90
26336;DHT22;14047;50.936;4.654;2023-06-26T10:14:58;23.80;99.90
26336;DHT22;14047;50.936;4.654;2023-06-26T10:17:28;23.90;99.90
26336;DHT22;14047;50.936;4.654;2023-06-26T10:19:58;23.90;99.90
26336;DHT22;14047;50.936;4.654;2023-06-26T10:22:27;23.90;99.90
26336;DHT22;14047;50.936;4.654;2023-06-26T10:24:58;24.10;99.90
26336;DHT22;14047;50.936;4.654;2023-06-26T10:27:28;24.20;99.90
26336;DHT22;14047;50.936;4.654;2023-06-26T10:30:01;24.10;99.90
26336;DHT22;14047;50.936;4.654;2023-06-26T10:32:29;24.00;99.90
26336;DHT22;14047;50.936;4.654;2023-06-26T10:34:56;24.00;99.90
26336;DHT22;14047;50.936;4.654;2023-06-26T10:37:45;24.10;99.90
26336;DHT22;14047;50.936;4.654;2023-06-26T10:40:12;24.00;99.90
26336;DHT22;14047;50.936;4.654;2023-06-26T10:42:39;24.10;99.90
26336;DHT22;14047;50.936;4.654;2023-06-26T10:45:28;24.10;99.90
26336;DHT22;14047;50.936;4.654;2023-06-26T10:47:54;23.70;99.90
26336;DHT22;14047;50.936;4.654;2023-06-26T10:52:54;23.60;99.90
26336;DHT22;14047;50.936;4.654;2023-06-26T10:55:32;23.70;99.90
26336;DHT22;14047;50.936;4.654;2023-06-26T10:57:58;23.70;99.90
26336;DHT22;14047;50.936;4.654;2023-06-26T11:00:24;23.70;99.90
26336;DHT22;14047;50.936;4.654;2023-06-26T11:02:51;23.90;99.90
26336;DHT22;14047;50.936;4.654;2023-06-26T11:05:43;23.90;99.90
26336;DHT22;14047;50.936;4.654;2023-06-26T11:08:10;24.00;99.90
26336;DHT22;14047;50.936;4.654;2023-06-26T11:10:52;24.00;99.90
26336;DHT22;14047;50.936;4.654;2023-06-26T11:13:19;24.00;99.90
26336;DHT22;14047;50.936;4.654;2023-06-26T11:15:50;24.20;99.90
26336;DHT22;14047;50.936;4.654;2023-06-26T11:18:16;24.20;99.90
26336;DHT22;14047;50.936;4.654;2023-06-26T11:20:42;24.10;99.90
26336;DHT22;14047;50.936;4.654;2023-06-26T11:23:09;24.00;99.90
26336;DHT22;14047;50.936;4.654;2023-06-26T11:25:38;23.80;99.90
26336;DHT22;14047;50.936;4.654;2023-06-26T11:28:05;23.90;99.90
26336;DHT22;14047;50.936;4.654;2023-06-26T11:30:32;24.20;99.90
26336;DHT22;14047;50.936;4.654;2023-06-26T11:33:08;24.50;99.90
26336;DHT22;14047;50.936;4.654;2023-06-26T11:35:34;24.60;99.90
26336;DHT22;14047;50.936;4.654;2023-06-26T11:38:03;24.70;99.90
26336;DHT22;14047;50.936;4.654;2023-06-26T11:40:36;24.80;99.90
26336;DHT22;14047;50.936;4.654;2023-06-26T11:43:03;24.80;99.90
26336;DHT22;14047;50.936;4.654;2023-06-26T11:45:30;24.60;99.90
26336;DHT22;14047;50.936;4.654;2023-06-26T11:47:57;24.40;99.90
26336;DHT22;14047;50.936;4.654;2023-06-26T11:50:24;24.10;99.90
26336;DHT22;14047;50.936;4.654;2023-06-26T11:52:56;24.00;99.90
26336;DHT22;14047;50.936;4.654;2023-06-26T11:55:24;24.10;99.90
26336;DHT22;14047;50.936;4.654;2023-06-26T11:57:52;24.00;99.90
26336;DHT22;14047;50.936;4.654;2023-06-26T12:00:18;24.10;99.90
26336;DHT22;14047;50.936;4.654;2023-06-26T12:02:45;24.30;99.90
26336;DHT22;14047;50.936;4.654;2023-06-26T12:05:16;24.40;99.90
26336;DHT22;14047;50.936;4.654;2023-06-26T12:07:46;24.60;99.90
26336;DHT22;14047;50.936;4.654;2023-06-26T12:10:14;24.80;99.90
26336;DHT22;14047;50.936;4.654;2023-06-26T12:12:41;24.80;99.90
26336;DHT22;14047;50.936;4.654;2023-06-26T12:15:08;24.70;99.90
26336;DHT22;14047;50.936;4.654;2023-06-26T12:17:37;24.80;99.90
26336;DHT22;14047;50.936;4.654;2023-06-26T12:20:05;24.90;99.90
26336;DHT22;14047;50.936;4.654;2023-06-26T12:22:36;25.00;99.90
26336;DHT22;14047;50.936;4.654;2023-06-26T12:25:04;25.00;99.90
26336;DHT22;14047;50.936;4.654;2023-06-26T12:27:32;24.50;99.90
26336;DHT22;14047;50.936;4.654;2023-06-26T12:29:58;24.60;99.90
26336;DHT22;14047;50.936;4.654;2023-06-26T12:32:25;24.70;99.90
26336;DHT22;14047;50.936;4.654;2023-06-26T12:34:56;24.90;99.90
26336;DHT22;14047;50.936;4.654;2023-06-26T12:37:23;25.30;99.90
26336;DHT22;14047;50.936;4.654;2023-06-26T12:39:57;25.50;99.90
26336;DHT22;14047;50.936;4.654;2023-06-26T12:42:25;25.60;99.90
26336;DHT22;14047;50.936;4.654;2023-06-26T12:44:51;25.30;99.90
26336;DHT22;14047;50.936;4.654;2023-06-26T12:47:19;25.20;99.90
26336;DHT22;14047;50.936;4.654;2023-06-26T12:49:49;25.40;99.90
26336;DHT22;14047;50.936;4.654;2023-06-26T12:52:16;25.20;99.90
26336;DHT22;14047;50.936;4.654;2023-06-26T12:54:43;25.10;99.90
26336;DHT22;14047;50.936;4.654;2023-06-26T12:57:09;25.30;99.90
26336;DHT22;14047;50.936;4.654;2023-06-26T12:59:37;25.50;99.90
26336;DHT22;14047;50.936;4.654;2023-06-26T13:02:03;25.70;99.90
26336;DHT22;14047;50.936;4.654;2023-06-26T13:04:30;25.60;99.90
26336;DHT22;14047;50.936;4.654;2023-06-26T13:06:56;25.60;99.90
26336;DHT22;14047;50.936;4.654;2023-06-26T13:09:23;25.60;99.90
26336;DHT22;14047;50.936;4.654;2023-06-26T13:11:53;25.70;99.90
26336;DHT22;14047;50.936;4.654;2023-06-26T13:14:20;25.90;99.90
26336;DHT22;14047;50.936;4.654;2023-06-26T13:16:47;26.00;99.90
26336;DHT22;14047;50.936;4.654;2023-06-26T13:19:13;25.90;99.90
26336;DHT22;14047;50.936;4.654;2023-06-26T13:21:39;25.90;99.90
26336;DHT22;14047;50.936;4.654;2023-06-26T13:24:05;26.00;99.90
26336;DHT22;14047;50.936;4.654;2023-06-26T13:26:31;26.10;99.90
26336;DHT22;14047;50.936;4.654;2023-06-26T13:28:58;26.00;99.90
26336;DHT22;14047;50.936;4.654;2023-06-26T13:31:24;25.80;99.90
26336;DHT22;14047;50.936;4.654;2023-06-26T13:33:50;25.80;99.90
26336;DHT22;14047;50.936;4.654;2023-06-26T13:36:18;25.80;99.90
26336;DHT22;14047;50.936;4.654;2023-06-26T13:38:46;25.70;99.90
26336;DHT22;14047;50.936;4.654;2023-06-26T13:41:12;25.60;99.90
26336;DHT22;14047;50.936;4.654;2023-06-26T13:43:38;25.70;99.90
26336;DHT22;14047;50.936;4.654;2023-06-26T13:46:04;25.80;99.90
26336;DHT22;14047;50.936;4.654;2023-06-26T13:48:29;26.00;99.90
26336;DHT22;14047;50.936;4.654;2023-06-26T13:50:56;26.30;99.90
26336;DHT22;14047;50.936;4.654;2023-06-26T13:53:21;26.70;99.90
26336;DHT22;14047;50.936;4.654;2023-06-26T13:55:48;26.70;99.90
26336;DHT22;14047;50.936;4.654;2023-06-26T13:58:14;26.50;99.90
26336;DHT22;14047;50.936;4.654;2023-06-26T14:00:41;26.10;99.90
26336;DHT22;14047;50.936;4.654;2023-06-26T14:03:10;26.10;99.90
26336;DHT22;14047;50.936;4.654;2023-06-26T14:05:37;25.90;99.90
26336;DHT22;14047;50.936;4.654;2023-06-26T14:08:06;25.80;99.90
26336;DHT22;14047;50.936;4.654;2023-06-26T14:10:33;26.00;99.90
26336;DHT22;14047;50.936;4.654;2023-06-26T14:12:59;26.30;99.90
26336;DHT22;14047;50.936;4.654;2023-06-26T14:15:25;26.60;99.90
26336;DHT22;14047;50.936;4.654;2023-06-26T14:17:55;26.70;99.90
26336;DHT22;14047;50.936;4.654;2023-06-26T14:20:22;26.50;99.90
26336;DHT22;14047;50.936;4.654;2023-06-26T14:22:48;26.30;99.90
26336;DHT22;14047;50.936;4.654;2023-06-26T14:25:16;26.40;99.90
26336;DHT22;14047;50.936;4.654;2023-06-26T14:27:42;26.30;99.90
26336;DHT22;14047;50.936;4.654;2023-06-26T14:30:08;26.50;99.90
26336;DHT22;14047;50.936;4.654;2023-06-26T14:32:35;26.80;99.90
26336;DHT22;14047;50.936;4.654;2023-06-26T14:35:02;27.00;99.90
26336;DHT22;14047;50.936;4.654;2023-06-26T14:37:30;27.30;99.90
26336;DHT22;14047;50.936;4.654;2023-06-26T14:39:57;27.30;99.90
26336;DHT22;14047;50.936;4.654;2023-06-26T14:42:24;27.70;99.90
26336;DHT22;14047;50.936;4.654;2023-06-26T14:44:50;27.80;99.90
26336;DHT22;14047;50.936;4.654;2023-06-26T14:47:17;28.00;99.90
26336;DHT22;14047;50.936;4.654;2023-06-26T14:49:43;27.80;99.90
26336;DHT22;14047;50.936;4.654;2023-06-26T14:52:09;27.20;99.90
26336;DHT22;14047;50.936;4.654;2023-06-26T14:54:35;27.00;99.90
26336;DHT22;14047;50.936;4.654;2023-06-26T14:57:06;26.90;99.90
26336;DHT22;14047;50.936;4.654;2023-06-26T14:59:32;26.80;99.90
26336;DHT22;14047;50.936;4.654;2023-06-26T15:01:58;26.90;99.90
26336;DHT22;14047;50.936;4.654;2023-06-26T15:04:24;27.00;99.90
26336;DHT22;14047;50.936;4.654;2023-06-26T15:06:52;27.20;99.90
26336;DHT22;14047;50.936;4.654;2023-06-26T15:09:18;27.20;99.90
26336;DHT22;14047;50.936;4.654;2023-06-26T15:11:44;27.30;99.90
26336;DHT22;14047;50.936;4.654;2023-06-26T15:14:10;27.40;99.90
26336;DHT22;14047;50.936;4.654;2023-06-26T15:16:36;27.70;99.90
26336;DHT22;14047;50.936;4.654;2023-06-26T15:19:02;27.70;99.90
26336;DHT22;14047;50.936;4.654;2023-06-26T15:21:28;27.80;99.90
26336;DHT22;14047;50.936;4.654;2023-06-26T15:23:54;27.60;99.90
26336;DHT22;14047;50.936;4.654;2023-06-26T15:26:20;27.50;99.90
26336;DHT22;14047;50.936;4.654;2023-06-26T15:28:46;27.20;99.90
26336;DHT22;14047;50.936;4.654;2023-06-26T15:31:13;26.50;99.90
26336;DHT22;14047;50.936;4.654;2023-06-26T15:33:39;26.20;99.90
26336;DHT22;14047;50.936;4.654;2023-06-26T15:36:05;26.00;99.90
26336;DHT22;14047;50.936;4.654;2023-06-26T15:38:31;25.70;99.90